sensor_id;sensor_type;location;lat;lon;timestamp;pressure;altitude;pressure_sealevel;temperature;humidity
21273;BME280;36726;52.328;10.552;2023-02-19T00:01:45;100436.00;;;8.81;100.00
21273;BME280;36726;52.328;10.552;2023-02-19T00:04:15;100426.34;;;8.82;100.00
21273;BME280;36726;52.328;10.552;2023-02-19T00:06:43;100417.63;;;8.84;100.00
21273;BME280;36726;52.328;10.552;2023-02-19T00:09:11;100411.44;;;8.82;100.00
21273;BME280;36726;52.328;10.552;2023-02-19T00:11:38;100374.50;;;8.82;100.00
21273;BME280;36726;52.328;10.552;2023-02-19T00:14:06;100375.47;;;8.89;100.00
21273;BME280;36726;52.328;10.552;2023-02-19T00:16:37;100380.84;;;8.93;100.00
21273;BME280;36726;52.328;10.552;2023-02-19T00:19:06;100401.94;;;8.93;100.00
21273;BME280;36726;52.328;10.552;2023-02-19T00:21:34;100397.50;;;8.91;100.00
21273;BME280;36726;52.328;10.552;2023-02-19T00:24:03;100394.88;;;8.91;100.00
21273;BME280;36726;52.328;10.552;2023-02-19T00:26:30;100388.75;;;8.93;100.00
21273;BME280;36726;52.328;10.552;2023-02-19T00:28:57;100388.84;;;8.99;100.00
21273;BME280;36726;52.328;10.552;2023-02-19T00:31:29;100385.41;;;9.05;100.00
21273;BME280;36726;52.328;10.552;2023-02-19T00:34:00;100373.16;;;9.08;100.00
21273;BME280;36726;52.328;10.552;2023-02-19T00:36:28;100367.06;;;9.11;100.00
21273;BME280;36726;52.328;10.552;2023-02-19T00:38:56;100377.63;;;9.12;100.00
21273;BME280;36726;52.328;10.552;2023-02-19T00:41:23;100373.16;;;9.10;100.00
21273;BME280;36726;52.328;10.552;2023-02-19T00:43:55;100368.66;;;9.01;100.00
21273;BME280;36726;52.328;10.552;2023-02-19T00:46:24;100355.41;;;8.98;100.00
21273;BME280;36726;52.328;10.552;2023-02-19T00:48:51;100355.41;;;8.98;100.00
21273;BME280;36726;52.328;10.552;2023-02-19T00:51:19;100351.91;;;8.99;100.00
21273;BME280;36726;52.328;10.552;2023-02-19T00:53:46;100347.53;;;9.00;100.00
21273;BME280;36726;52.328;10.552;2023-02-19T00:56:13;100351.09;;;9.02;100.00
21273;BME280;36726;52.328;10.552;2023-02-19T00:58:39;100342.25;;;9.00;100.00
21273;BME280;36726;52.328;10.552;2023-02-19T01:01:06;100339.59;;;8.98;100.00
21273;BME280;36726;52.328;10.552;2023-02-19T01:03:35;100337.78;;;8.96;100.00
21273;BME280;36726;52.328;10.552;2023-02-19T01:06:03;100332.53;;;8.97;100.00
21273;BME280;36726;52.328;10.552;2023-02-19T01:08:31;100326.44;;;9.00;100.00
21273;BME280;36726;52.328;10.552;2023-02-19T01:11:00;100323.88;;;9.04;100.00
21273;BME280;36726;52.328;10.552;2023-02-19T01:13:27;100327.44;;;9.08;100.00
21273;BME280;36726;52.328;10.552;2023-02-19T01:16:26;100327.47;;;9.09;100.00
21273;BME280;36726;52.328;10.552;2023-02-19T01:18:53;100314.28;;;9.12;100.00
21273;BME280;36726;52.328;10.552;2023-02-19T01:21:22;100306.41;;;9.15;100.00
21273;BME280;36726;52.328;10.552;2023-02-19T01:23:50;100298.56;;;9.18;100.00
21273;BME280;36726;52.328;10.552;2023-02-19T01:26:19;100280.13;;;9.21;100.00
21273;BME280;36726;52.328;10.552;2023-02-19T01:28:46;100273.13;;;9.25;100.00
21273;BME280;36726;52.328;10.552;2023-02-19T01:31:19;100276.69;;;9.27;100.00
21273;BME280;36726;52.328;10.552;2023-02-19T01:33:49;100275.81;;;9.28;100.00
21273;BME280;36726;52.328;10.552;2023-02-19T01:36:16;100273.25;;;9.32;100.00
21273;BME280;36726;52.328;10.552;2023-02-19T01:38:43;100267.94;;;9.31;100.00
21273;BME280;36726;52.328;10.552;2023-02-19T01:41:16;100264.41;;;9.30;100.00
21273;BME280;36726;52.328;10.552;2023-02-19T01:46:40;100279.31;;;9.25;100.00
21273;BME280;36726;52.328;10.552;2023-02-19T01:49:29;100283.66;;;9.20;100.00
21273;BME280;36726;52.328;10.552;2023-02-19T01:52:01;100289.72;;;9.13;100.00
21273;BME280;36726;52.328;10.552;2023-02-19T01:54:31;100282.53;;;9.06;100.00
21273;BME280;36726;52.328;10.552;2023-02-19T01:57:03;100295.69;;;9.03;100.00
21273;BME280;36726;52.328;10.552;2023-02-19T01:59:32;100291.22;;;8.99;100.00
21273;BME280;36726;52.328;10.552;2023-02-19T02:02:01;100287.66;;;8.96;100.00
21273;BME280;36726;52.328;10.552;2023-02-19T02:04:30;100287.63;;;8.93;100.00
21273;BME280;36726;52.328;10.552;2023-02-19T02:06:59;100280.53;;;8.89;100.00
21273;BME280;36726;52.328;10.552;2023-02-19T02:09:29;100288.38;;;8.84;100.00
21273;BME280;36726;52.328;10.552;2023-02-19T02:12:15;100277.84;;;8.84;100.00
21273;BME280;36726;52.328;10.552;2023-02-19T02:14:44;100278.66;;;8.80;100.00
21273;BME280;36726;52.328;10.552;2023-02-19T02:17:24;100275.13;;;8.81;100.00
21273;BME280;36726;52.328;10.552;2023-02-19T02:23:16;100267.09;;;8.72;100.00
21273;BME280;36726;52.328;10.552;2023-02-19T02:25:54;100267.06;;;8.69;100.00
21273;BME280;36726;52.328;10.552;2023-02-19T02:28:35;100252.03;;;8.65;100.00
21273;BME280;36726;52.328;10.552;2023-02-19T02:31:20;100241.47;;;8.62;100.00
21273;BME280;36726;52.328;10.552;2023-02-19T02:36:38;100246.72;;;8.61;100.00
21273;BME280;36726;52.328;10.552;2023-02-19T02:39:10;100247.56;;;8.60;100.00
21273;BME280;36726;52.328;10.552;2023-02-19T02:41:49;100243.16;;;8.57;100.00
21273;BME280;36726;52.328;10.552;2023-02-19T02:44:41;100246.63;;;8.58;100.00
21273;BME280;36726;52.328;10.552;2023-02-19T02:47:41;100244.88;;;8.55;100.00
21273;BME280;36726;52.328;10.552;2023-02-19T02:50:17;100251.84;;;8.52;100.00
21273;BME280;36726;52.328;10.552;2023-02-19T02:52:47;100261.44;;;8.47;100.00
21273;BME280;36726;52.328;10.552;2023-02-19T02:55:39;100266.63;;;8.44;100.00
21273;BME280;36726;52.328;10.552;2023-02-19T02:58:10;100261.34;;;8.44;100.00
21273;BME280;36726;52.328;10.552;2023-02-19T03:00:42;100247.28;;;8.43;100.00
21273;BME280;36726;52.328;10.552;2023-02-19T03:03:29;100251.69;;;8.43;100.00
21273;BME280;36726;52.328;10.552;2023-02-19T03:06:02;100247.28;;;8.43;100.00
21273;BME280;36726;52.328;10.552;2023-02-19T03:08:35;100248.19;;;8.44;100.00
21273;BME280;36726;52.328;10.552;2023-02-19T03:11:06;100256.97;;;8.44;100.00
21273;BME280;36726;52.328;10.552;2023-02-19T03:14:12;100254.34;;;8.44;100.00
21273;BME280;36726;52.328;10.552;2023-02-19T03:17:06;100264.06;;;8.47;100.00
21273;BME280;36726;52.328;10.552;2023-02-19T03:19:55;100271.09;;;8.46;100.00
21273;BME280;36726;52.328;10.552;2023-02-19T03:22:35;100261.31;;;8.39;100.00
21273;BME280;36726;52.328;10.552;2023-02-19T03:25:08;100280.53;;;8.33;100.00
21273;BME280;36726;52.328;10.552;2023-02-19T03:28:03;100269.78;;;8.23;100.00
21273;BME280;36726;52.328;10.552;2023-02-19T03:30:33;100271.41;;;8.18;100.00
21273;BME280;36726;52.328;10.552;2023-02-19T03:35:37;100286.06;;;8.01;100.00
21273;BME280;36726;52.328;10.552;2023-02-19T03:38:31;100307.00;;;7.95;100.00
21273;BME280;36726;52.328;10.552;2023-02-19T03:41:27;100303.25;;;7.82;100.00
21273;BME280;36726;52.328;10.552;2023-02-19T03:46:59;100317.97;;;7.73;100.00
21273;BME280;36726;52.328;10.552;2023-02-19T03:52:50;100338.41;;;7.44;100.00
21273;BME280;36726;52.328;10.552;2023-02-19T03:55:41;100344.16;;;7.25;100.00
21273;BME280;36726;52.328;10.552;2023-02-19T03:58:17;100338.44;;;7.05;100.00
21273;BME280;36726;52.328;10.552;2023-02-19T04:01:01;100339.91;;;6.93;100.00
21273;BME280;36726;52.328;10.552;2023-02-19T04:04:42;100356.25;;;6.81;100.00
21273;BME280;36726;52.328;10.552;2023-02-19T04:06:37;100352.47;;;6.70;100.00
21273;BME280;36726;52.328;10.552;2023-02-19T04:09:07;100353.16;;;6.62;100.00
21273;BME280;36726;52.328;10.552;2023-02-19T04:11:37;100344.22;;;6.55;100.00
21273;BME280;36726;52.328;10.552;2023-02-19T04:14:15;100374.81;;;6.53;100.00
21273;BME280;36726;52.328;10.552;2023-02-19T04:16:46;100375.75;;;6.55;100.00
21273;BME280;36726;52.328;10.552;2023-02-19T04:19:18;100379.19;;;6.53;100.00
21273;BME280;36726;52.328;10.552;2023-02-19T04:21:47;100385.94;;;6.43;100.00
21273;BME280;36726;52.328;10.552;2023-02-19T04:24:22;100389.31;;;6.39;100.00
21273;BME280;36726;52.328;10.552;2023-02-19T04:26:51;100381.44;;;6.39;100.00
21273;BME280;36726;52.328;10.552;2023-02-19T04:29:18;100384.97;;;6.40;100.00
21273;BME280;36726;52.328;10.552;2023-02-19T04:31:44;100403.22;;;6.34;100.00
21273;BME280;36726;52.328;10.552;2023-02-19T04:34:11;100394.41;;;6.32;100.00
21273;BME280;36726;52.328;10.552;2023-02-19T04:36:37;100400.28;;;6.23;100.00
21273;BME280;36726;52.328;10.552;2023-02-19T04:39:04;100400.91;;;6.14;100.00
21273;BME280;36726;52.328;10.552;2023-02-19T04:41:33;100406.06;;;6.10;100.00
21273;BME280;36726;52.328;10.552;2023-02-19T04:43:59;100413.81;;;6.07;100.00
21273;BME280;36726;52.328;10.552;2023-02-19T04:46:26;100426.91;;;6.05;100.00
21273;BME280;36726;52.328;10.552;2023-02-19T04:48:53;100426.88;;;6.04;100.00
21273;BME280;36726;52.328;10.552;2023-02-19T04:51:20;100431.19;;;6.02;100.00
21273;BME280;36726;52.328;10.552;2023-02-19T04:53:46;100437.31;;;6.01;100.00
21273;BME280;36726;52.328;10.552;2023-02-19T04:56:14;100446.88;;;5.99;100.00
21273;BME280;36726;52.328;10.552;2023-02-19T04:58:42;100444.06;;;5.93;100.00
21273;BME280;36726;52.328;10.552;2023-02-19T05:01:10;100455.28;;;5.89;100.00
21273;BME280;36726;52.328;10.552;2023-02-19T05:03:37;100457.09;;;5.90;100.00
21273;BME280;36726;52.328;10.552;2023-02-19T05:06:09;100459.56;;;5.85;100.00
21273;BME280;36726;52.328;10.552;2023-02-19T05:08:38;100463.94;;;5.85;100.00
21273;BME280;36726;52.328;10.552;2023-02-19T05:11:06;100468.97;;;5.79;100.00
21273;BME280;36726;52.328;10.552;2023-02-19T05:13:33;100481.06;;;5.74;100.00
21273;BME280;36726;52.328;10.552;2023-02-19T05:16:06;100491.44;;;5.71;100.00
21273;BME280;36726;52.328;10.552;2023-02-19T05:18:33;100491.28;;;5.65;100.00
21273;BME280;36726;52.328;10.552;2023-02-19T05:21:00;100493.00;;;5.64;100.00
21273;BME280;36726;52.328;10.552;2023-02-19T05:23:27;100501.75;;;5.63;100.00
21273;BME280;36726;52.328;10.552;2023-02-19T05:25:54;100500.94;;;5.66;100.00
21273;BME280;36726;52.328;10.552;2023-02-19T05:28:21;100504.28;;;5.62;100.00
21273;BME280;36726;52.328;10.552;2023-02-19T05:30:55;100519.00;;;5.57;100.00
21273;BME280;36726;52.328;10.552;2023-02-19T05:33:24;100534.50;;;5.49;100.00
21273;BME280;36726;52.328;10.552;2023-02-19T05:35:54;100542.19;;;5.43;100.00
21273;BME280;36726;52.328;10.552;2023-02-19T05:38:21;100539.34;;;5.37;100.00
21273;BME280;36726;52.328;10.552;2023-02-19T05:40:48;100547.91;;;5.32;100.00
21273;BME280;36726;52.328;10.552;2023-02-19T05:43:16;100558.97;;;5.23;100.00
21273;BME280;36726;52.328;10.552;2023-02-19T05:45:42;100573.47;;;5.12;100.00
21273;BME280;36726;52.328;10.552;2023-02-19T05:48:10;100564.50;;;5.05;100.00
21273;BME280;36726;52.328;10.552;2023-02-19T05:50:36;100572.97;;;4.98;100.00
21273;BME280;36726;52.328;10.552;2023-02-19T05:53:11;100578.00;;;4.92;100.00
21273;BME280;36726;52.328;10.552;2023-02-19T05:55:37;100586.50;;;4.85;100.00
21273;BME280;36726;52.328;10.552;2023-02-19T05:58:04;100584.50;;;4.78;100.00
21273;BME280;36726;52.328;10.552;2023-02-19T06:00:32;100595.53;;;4.70;100.00
21273;BME280;36726;52.328;10.552;2023-02-19T06:02:58;100593.63;;;4.66;100.00
21273;BME280;36726;52.328;10.552;2023-02-19T06:05:25;100600.56;;;4.64;100.00
21273;BME280;36726;52.328;10.552;2023-02-19T06:07:51;100604.94;;;4.65;100.00
21273;BME280;36726;52.328;10.552;2023-02-19T06:10:18;100609.22;;;4.63;100.00
21273;BME280;36726;52.328;10.552;2023-02-19T06:12:45;100620.59;;;4.63;100.00
21273;BME280;36726;52.328;10.552;2023-02-19T06:15:11;100624.03;;;4.62;100.00
21273;BME280;36726;52.328;10.552;2023-02-19T06:17:38;100625.94;;;4.66;100.00
21273;BME280;36726;52.328;10.552;2023-02-19T06:20:05;100642.63;;;4.68;100.00
21273;BME280;36726;52.328;10.552;2023-02-19T06:22:31;100636.56;;;4.69;100.00
21273;BME280;36726;52.328;10.552;2023-02-19T06:24:58;100643.69;;;4.73;100.00
21273;BME280;36726;52.328;10.552;2023-02-19T06:27:24;100642.88;;;4.74;100.00
21273;BME280;36726;52.328;10.552;2023-02-19T06:29:51;100655.97;;;4.74;100.00
21273;BME280;36726;52.328;10.552;2023-02-19T06:32:17;100654.00;;;4.69;100.00
21273;BME280;36726;52.328;10.552;2023-02-19T06:34:44;100668.66;;;4.64;100.00
21273;BME280;36726;52.328;10.552;2023-02-19T06:37:11;100672.16;;;4.64;100.00
21273;BME280;36726;52.328;10.552;2023-02-19T06:39:37;100674.91;;;4.67;100.00
21273;BME280;36726;52.328;10.552;2023-02-19T06:42:04;100685.59;;;4.73;100.00
21273;BME280;36726;52.328;10.552;2023-02-19T06:44:30;100694.41;;;4.75;100.00
21273;BME280;36726;52.328;10.552;2023-02-19T06:46:57;100704.59;;;4.68;100.00
21273;BME280;36726;52.328;10.552;2023-02-19T06:49:24;100709.56;;;4.60;100.00
21273;BME280;36726;52.328;10.552;2023-02-19T06:51:50;100719.91;;;4.57;100.00
21273;BME280;36726;52.328;10.552;2023-02-19T06:54:19;100730.38;;;4.57;100.00
21273;BME280;36726;52.328;10.552;2023-02-19T06:56:45;100730.53;;;4.60;100.00
21273;BME280;36726;52.328;10.552;2023-02-19T06:59:14;100736.53;;;4.58;100.00
21273;BME280;36726;52.328;10.552;2023-02-19T07:01:44;100740.06;;;4.58;100.00
21273;BME280;36726;52.328;10.552;2023-02-19T07:04:11;100741.13;;;4.63;100.00
21273;BME280;36726;52.328;10.552;2023-02-19T07:06:37;100747.53;;;4.71;100.00
21273;BME280;36726;52.328;10.552;2023-02-19T07:09:05;100754.81;;;4.78;100.00
21273;BME280;36726;52.328;10.552;2023-02-19T07:11:34;100762.78;;;4.81;100.00
21273;BME280;36726;52.328;10.552;2023-02-19T07:14:02;100770.91;;;4.87;100.00
21273;BME280;36726;52.328;10.552;2023-02-19T07:16:30;100776.34;;;4.93;100.00
21273;BME280;36726;52.328;10.552;2023-02-19T07:18:57;100778.25;;;4.97;100.00
21273;BME280;36726;52.328;10.552;2023-02-19T07:21:26;100788.81;;;4.99;100.00
21273;BME280;36726;52.328;10.552;2023-02-19T07:23:52;100792.44;;;5.02;100.00
21273;BME280;36726;52.328;10.552;2023-02-19T07:26:20;100801.31;;;5.06;100.00
21273;BME280;36726;52.328;10.552;2023-02-19T07:28:48;100812.69;;;5.06;100.00
21273;BME280;36726;52.328;10.552;2023-02-19T07:31:18;100815.38;;;5.08;100.00
21273;BME280;36726;52.328;10.552;2023-02-19T07:33:46;100818.94;;;5.10;100.00
21273;BME280;36726;52.328;10.552;2023-02-19T07:36:14;100828.66;;;5.12;100.00
21273;BME280;36726;52.328;10.552;2023-02-19T07:38:42;100829.47;;;5.11;100.00
21273;BME280;36726;52.328;10.552;2023-02-19T07:41:09;100838.34;;;5.15;100.00
21273;BME280;36726;52.328;10.552;2023-02-19T07:43:37;100850.72;;;5.17;100.00
21273;BME280;36726;52.328;10.552;2023-02-19T07:46:10;100848.13;;;5.19;100.00
21273;BME280;36726;52.328;10.552;2023-02-19T07:48:38;100842.94;;;5.20;100.00
21273;BME280;36726;52.328;10.552;2023-02-19T07:51:06;100848.28;;;5.23;100.00
21273;BME280;36726;52.328;10.552;2023-02-19T07:53:37;100866.00;;;5.29;100.00
21273;BME280;36726;52.328;10.552;2023-02-19T07:56:06;100860.84;;;5.31;100.00
21273;BME280;36726;52.328;10.552;2023-02-19T07:58:33;100865.28;;;5.33;100.00
21273;BME280;36726;52.328;10.552;2023-02-19T08:01:30;100876.72;;;5.35;100.00
21273;BME280;36726;52.328;10.552;2023-02-19T08:04:15;100888.22;;;5.39;100.00
21273;BME280;36726;52.328;10.552;2023-02-19T08:06:42;100898.84;;;5.42;100.00
21273;BME280;36726;52.328;10.552;2023-02-19T08:09:11;100892.78;;;5.43;100.00
21273;BME280;36726;52.328;10.552;2023-02-19T08:11:38;100892.88;;;5.46;100.00
21273;BME280;36726;52.328;10.552;2023-02-19T08:14:24;100893.13;;;5.52;100.00
21273;BME280;36726;52.328;10.552;2023-02-19T08:16:52;100895.03;;;5.56;100.00
21273;BME280;36726;52.328;10.552;2023-02-19T08:19:19;100899.28;;;5.52;100.00
21273;BME280;36726;52.328;10.552;2023-02-19T08:21:45;100901.69;;;5.48;100.00
21273;BME280;36726;52.328;10.552;2023-02-19T08:24:12;100909.41;;;5.43;100.00
21273;BME280;36726;52.328;10.552;2023-02-19T08:26:39;100914.22;;;5.32;100.00
21273;BME280;36726;52.328;10.552;2023-02-19T08:29:05;100925.75;;;5.36;100.00
21273;BME280;36726;52.328;10.552;2023-02-19T08:31:33;100933.97;;;5.45;100.00
21273;BME280;36726;52.328;10.552;2023-02-19T08:34:00;100941.16;;;5.51;100.00
21273;BME280;36726;52.328;10.552;2023-02-19T08:36:26;100945.47;;;5.49;100.00
21273;BME280;36726;52.328;10.552;2023-02-19T08:38:55;100961.34;;;5.52;100.00
21273;BME280;36726;52.328;10.552;2023-02-19T08:41:24;100958.00;;;5.56;100.00
21273;BME280;36726;52.328;10.552;2023-02-19T08:43:51;100968.72;;;5.62;100.00
21273;BME280;36726;52.328;10.552;2023-02-19T08:46:17;100973.19;;;5.64;100.00
21273;BME280;36726;52.328;10.552;2023-02-19T08:48:44;100964.47;;;5.65;100.00
21273;BME280;36726;52.328;10.552;2023-02-19T08:51:11;100965.69;;;5.73;100.00
21273;BME280;36726;52.328;10.552;2023-02-19T08:53:39;100977.91;;;5.73;100.00
21273;BME280;36726;52.328;10.552;2023-02-19T08:56:12;100986.84;;;5.78;100.00
21273;BME280;36726;52.328;10.552;2023-02-19T08:58:39;100983.50;;;5.82;100.00
21273;BME280;36726;52.328;10.552;2023-02-19T09:01:10;100989.94;;;5.88;100.00
21273;BME280;36726;52.328;10.552;2023-02-19T09:03:40;100998.97;;;5.96;100.00
21273;BME280;36726;52.328;10.552;2023-02-19T09:06:15;100998.22;;;5.99;100.00
21273;BME280;36726;52.328;10.552;2023-02-19T09:08:43;101001.66;;;5.98;100.00
21273;BME280;36726;52.328;10.552;2023-02-19T09:11:09;101002.59;;;6.00;100.00
21273;BME280;36726;52.328;10.552;2023-02-19T09:13:37;101002.31;;;5.92;100.00
21273;BME280;36726;52.328;10.552;2023-02-19T09:16:04;101009.31;;;5.92;100.00
21273;BME280;36726;52.328;10.552;2023-02-19T09:18:31;101015.88;;;6.03;100.00
21273;BME280;36726;52.328;10.552;2023-02-19T09:21:03;101014.41;;;6.11;100.00
21273;BME280;36726;52.328;10.552;2023-02-19T09:23:34;101011.78;;;6.11;100.00
21273;BME280;36726;52.328;10.552;2023-02-19T09:26:02;101014.31;;;6.08;100.00
21273;BME280;36726;52.328;10.552;2023-02-19T09:28:32;101015.38;;;6.13;100.00
21273;BME280;36726;52.328;10.552;2023-02-19T09:31:05;101003.53;;;6.24;100.00
21273;BME280;36726;52.328;10.552;2023-02-19T09:33:32;101012.03;;;6.41;100.00
21273;BME280;36726;52.328;10.552;2023-02-19T09:36:00;101016.94;;;6.55;100.00
21273;BME280;36726;52.328;10.552;2023-02-19T09:38:27;101028.50;;;6.60;100.00
21273;BME280;36726;52.328;10.552;2023-02-19T09:40:56;101023.59;;;6.69;100.00
21273;BME280;36726;52.328;10.552;2023-02-19T09:43:25;101021.22;;;6.77;100.00
21273;BME280;36726;52.328;10.552;2023-02-19T09:46:01;101035.38;;;6.80;100.00
21273;BME280;36726;52.328;10.552;2023-02-19T09:48:29;101037.06;;;6.78;100.00
21273;BME280;36726;52.328;10.552;2023-02-19T09:50:56;101059.59;;;6.72;100.00
21273;BME280;36726;52.328;10.552;2023-02-19T09:53:26;101057.19;;;6.54;100.00
21273;BME280;36726;52.328;10.552;2023-02-19T09:55:54;101062.22;;;6.48;100.00
21273;BME280;36726;52.328;10.552;2023-02-19T10:00:54;101064.41;;;6.83;100.00
21273;BME280;36726;52.328;10.552;2023-02-19T10:03:32;101060.09;;;6.85;100.00
21273;BME280;36726;52.328;10.552;2023-02-19T10:06:12;101069.22;;;6.95;100.00
21273;BME280;36726;52.328;10.552;2023-02-19T10:08:44;101065.81;;;6.99;100.00
21273;BME280;36726;52.328;10.552;2023-02-19T10:11:11;101073.97;;;7.06;100.00
21273;BME280;36726;52.328;10.552;2023-02-19T10:13:48;101075.47;;;6.98;100.00
21273;BME280;36726;52.328;10.552;2023-02-19T10:16:21;101088.31;;;7.14;100.00
21273;BME280;36726;52.328;10.552;2023-02-19T10:18:50;101099.00;;;7.20;99.22
21273;BME280;36726;52.328;10.552;2023-02-19T10:21:24;101105.03;;;7.16;99.01
21273;BME280;36726;52.328;10.552;2023-02-19T10:23:54;101121.44;;;7.09;97.41
21273;BME280;36726;52.328;10.552;2023-02-19T10:26:22;101114.88;;;7.22;97.65
21273;BME280;36726;52.328;10.552;2023-02-19T10:28:49;101113.28;;;7.27;95.16
21273;BME280;36726;52.328;10.552;2023-02-19T10:31:22;101132.72;;;7.30;95.18
21273;BME280;36726;52.328;10.552;2023-02-19T10:33:57;101141.44;;;7.29;94.99
21273;BME280;36726;52.328;10.552;2023-02-19T10:36:32;101141.25;;;7.23;96.07
21273;BME280;36726;52.328;10.552;2023-02-19T10:39:02;101145.00;;;7.06;93.12
21273;BME280;36726;52.328;10.552;2023-02-19T10:41:30;101136.56;;;6.91;95.21
21273;BME280;36726;52.328;10.552;2023-02-19T10:44:06;101149.31;;;6.81;96.92
21273;BME280;36726;52.328;10.552;2023-02-19T10:46:36;101160.63;;;6.78;98.83
21273;BME280;36726;52.328;10.552;2023-02-19T10:49:21;101155.22;;;6.75;97.89
21273;BME280;36726;52.328;10.552;2023-02-19T10:51:51;101172.91;;;6.79;97.41
21273;BME280;36726;52.328;10.552;2023-02-19T10:54:24;101168.47;;;7.00;96.77
21273;BME280;36726;52.328;10.552;2023-02-19T10:56:51;101184.50;;;7.31;96.28
21273;BME280;36726;52.328;10.552;2023-02-19T10:59:24;101181.44;;;7.45;92.75
21273;BME280;36726;52.328;10.552;2023-02-19T11:01:59;101177.41;;;7.54;88.84
21273;BME280;36726;52.328;10.552;2023-02-19T11:04:32;101178.03;;;7.47;88.50
21273;BME280;36726;52.328;10.552;2023-02-19T11:07:10;101168.69;;;7.57;91.01
21273;BME280;36726;52.328;10.552;2023-02-19T11:09:39;101171.91;;;7.73;91.54
21273;BME280;36726;52.328;10.552;2023-02-19T11:12:09;101173.94;;;7.82;88.70
21273;BME280;36726;52.328;10.552;2023-02-19T11:14:36;101155.59;;;7.83;90.44
21273;BME280;36726;52.328;10.552;2023-02-19T11:17:03;101151.00;;;7.78;89.66
21273;BME280;36726;52.328;10.552;2023-02-19T11:19:39;101150.75;;;7.70;89.81
21273;BME280;36726;52.328;10.552;2023-02-19T11:28:05;101176.78;;;7.88;83.79
21273;BME280;36726;52.328;10.552;2023-02-19T11:30:40;101169.75;;;7.87;84.38
21273;BME280;36726;52.328;10.552;2023-02-19T11:35:43;101163.50;;;7.83;82.90
21273;BME280;36726;52.328;10.552;2023-02-19T11:38:12;101178.84;;;7.71;83.50
21273;BME280;36726;52.328;10.552;2023-02-19T11:40:46;101203.00;;;7.58;84.36
21273;BME280;36726;52.328;10.552;2023-02-19T11:46:06;101190.94;;;7.40;84.96
21273;BME280;36726;52.328;10.552;2023-02-19T11:51:44;101187.16;;;7.33;86.09
21273;BME280;36726;52.328;10.552;2023-02-19T11:57:41;101189.47;;;7.24;83.96
21273;BME280;36726;52.328;10.552;2023-02-19T12:00:23;101200.91;;;7.24;82.09
21273;BME280;36726;52.328;10.552;2023-02-19T12:05:32;101211.63;;;7.54;83.05
21273;BME280;36726;52.328;10.552;2023-02-19T12:08:12;101197.56;;;7.79;80.74
21273;BME280;36726;52.328;10.552;2023-02-19T12:16:45;101198.38;;;8.03;79.81
21273;BME280;36726;52.328;10.552;2023-02-19T12:25:17;101189.56;;;7.76;81.68
21273;BME280;36726;52.328;10.552;2023-02-19T12:27:54;101187.06;;;7.80;81.06
21273;BME280;36726;52.328;10.552;2023-02-19T12:30:29;101197.34;;;7.98;81.38
21273;BME280;36726;52.328;10.552;2023-02-19T12:33:24;101185.75;;;8.19;78.67
21273;BME280;36726;52.328;10.552;2023-02-19T12:36:20;101192.97;;;8.25;76.69
21273;BME280;36726;52.328;10.552;2023-02-19T12:39:09;101190.47;;;8.28;78.13
21273;BME280;36726;52.328;10.552;2023-02-19T12:42:00;101191.38;;;8.28;75.23
21273;BME280;36726;52.328;10.552;2023-02-19T12:44:42;101191.91;;;8.20;75.53
21273;BME280;36726;52.328;10.552;2023-02-19T12:47:18;101208.50;;;8.16;72.99
21273;BME280;36726;52.328;10.552;2023-02-19T12:49:51;101200.16;;;8.04;69.85
21273;BME280;36726;52.328;10.552;2023-02-19T12:52:26;101217.34;;;7.93;70.95
21273;BME280;36726;52.328;10.552;2023-02-19T12:54:57;101217.03;;;7.84;71.68
21273;BME280;36726;52.328;10.552;2023-02-19T12:57:31;101226.44;;;7.76;70.73
21273;BME280;36726;52.328;10.552;2023-02-19T13:00:36;101219.25;;;7.72;74.58
21273;BME280;36726;52.328;10.552;2023-02-19T13:03:31;101231.47;;;7.70;75.33
21273;BME280;36726;52.328;10.552;2023-02-19T13:07:05;101231.44;;;7.68;74.36
21273;BME280;36726;52.328;10.552;2023-02-19T13:09:20;101235.84;;;7.69;75.13
21273;BME280;36726;52.328;10.552;2023-02-19T13:11:59;101233.16;;;7.68;75.92
21273;BME280;36726;52.328;10.552;2023-02-19T13:14:44;101240.97;;;7.65;76.40
21273;BME280;36726;52.328;10.552;2023-02-19T13:17:30;101250.50;;;7.61;74.69
21273;BME280;36726;52.328;10.552;2023-02-19T13:20:06;101239.78;;;7.57;75.88
21273;BME280;36726;52.328;10.552;2023-02-19T13:22:45;101243.22;;;7.54;76.82
21273;BME280;36726;52.328;10.552;2023-02-19T13:34:49;101251.59;;;7.68;74.17
21273;BME280;36726;52.328;10.552;2023-02-19T13:37:21;101242.41;;;7.82;72.74
21273;BME280;36726;52.328;10.552;2023-02-19T13:39:50;101240.97;;;7.90;72.81
21273;BME280;36726;52.328;10.552;2023-02-19T13:42:30;101240.97;;;7.90;70.65
21273;BME280;36726;52.328;10.552;2023-02-19T13:45:03;101234.84;;;7.91;69.19
21273;BME280;36726;52.328;10.552;2023-02-19T13:50:27;101237.03;;;8.04;72.62
21273;BME280;36726;52.328;10.552;2023-02-19T13:52:56;101230.19;;;8.09;71.63
21273;BME280;36726;52.328;10.552;2023-02-19T13:58:37;101213.47;;;8.07;69.02
21273;BME280;36726;52.328;10.552;2023-02-19T14:01:07;101218.72;;;8.07;69.18
21273;BME280;36726;52.328;10.552;2023-02-19T14:04:06;101219.50;;;8.04;69.07
21273;BME280;36726;52.328;10.552;2023-02-19T14:14:37;101200.09;;;8.27;71.54
21273;BME280;36726;52.328;10.552;2023-02-19T14:28:25;101217.31;;;8.18;67.69
21273;BME280;36726;52.328;10.552;2023-02-19T14:30:52;101220.75;;;8.15;68.45
21273;BME280;36726;52.328;10.552;2023-02-19T14:33:22;101219.94;;;8.18;70.37
21273;BME280;36726;52.328;10.552;2023-02-19T14:35:53;101217.38;;;8.19;69.10